createdAt,value
2023-05-27T00:00:54.623Z,2478.00
2023-05-27T00:01:54.652Z,2473.00
2023-05-27T00:02:54.778Z,2475.00
2023-05-27T00:03:54.933Z,2473.00
2023-05-27T00:04:54.932Z,2475.00
2023-05-27T00:05:54.862Z,2482.00
2023-05-27T00:06:54.887Z,2493.00
2023-05-27T00:07:54.965Z,2508.00
2023-05-27T00:08:55.002Z,2472.00
2023-05-27T00:09:55.036Z,2476.00
2023-05-27T00:10:55.097Z,2480.00
2023-05-27T00:11:55.153Z,2487.00
2023-05-27T00:12:55.196Z,2491.00
2023-05-27T00:13:55.246Z,2484.00
2023-05-27T00:14:55.330Z,2496.00
2023-05-27T00:15:55.384Z,2498.00
2023-05-27T00:16:55.447Z,2492.00
2023-05-27T00:17:55.562Z,2486.00
2023-05-27T00:18:55.529Z,2504.00
2023-05-27T00:19:55.643Z,2497.00
2023-05-27T00:20:55.598Z,2490.00
2023-05-27T00:21:55.636Z,2503.00
2023-05-27T00:22:55.696Z,2498.00
2023-05-27T00:23:55.764Z,2490.00
2023-05-27T00:24:55.808Z,2493.00
2023-05-27T00:25:55.845Z,2497.00
2023-05-27T00:26:55.896Z,2518.00
2023-05-27T00:27:55.953Z,2512.00
2023-05-27T00:28:55.984Z,2491.00
2023-05-27T00:29:56.057Z,2496.00
2023-05-27T00:30:56.092Z,2507.00
2023-05-27T00:31:56.149Z,2511.00
2023-05-27T00:32:56.256Z,2506.00
2023-05-27T00:33:56.229Z,2500.00
2023-05-27T00:34:56.300Z,2492.00
2023-05-27T00:35:57.213Z,2492.00
2023-05-27T00:36:56.368Z,2511.00
2023-05-27T00:37:56.409Z,2518.00
2023-05-27T00:38:56.464Z,2498.00
2023-05-27T00:39:56.516Z,2498.00
2023-05-27T00:40:56.606Z,2519.00
2023-05-27T00:41:56.614Z,2516.00
2023-05-27T00:42:56.670Z,2506.00
2023-05-27T00:43:56.732Z,2517.00
2023-05-27T00:44:56.800Z,2512.00
2023-05-27T00:45:56.852Z,2519.00
2023-05-27T00:46:56.888Z,2512.00
2023-05-27T00:47:56.990Z,2516.00
2023-05-27T00:48:57.003Z,2507.00
2023-05-27T00:49:57.037Z,2508.00
2023-05-27T00:50:57.103Z,2510.00
2023-05-27T00:51:57.148Z,2519.00
2023-05-27T00:52:57.201Z,2506.00
2023-05-27T00:53:57.251Z,2486.00
2023-05-27T00:54:57.283Z,2501.00
2023-05-27T00:55:57.347Z,2479.00
2023-05-27T00:56:57.393Z,2491.00
2023-05-27T00:57:57.473Z,2475.00
2023-05-27T00:58:57.517Z,2475.00
2023-05-27T00:59:57.563Z,2452.00
2023-05-27T01:00:57.635Z,2477.00
2023-05-27T01:01:57.670Z,2486.00
2023-05-27T01:02:57.783Z,2481.00
2023-05-27T01:03:57.769Z,2476.00
2023-05-27T01:04:57.810Z,2463.00
2023-05-27T01:05:57.903Z,2430.00
2023-05-27T01:06:57.947Z,2432.00
2023-05-27T01:07:57.976Z,2451.00
2023-05-27T01:08:58.064Z,2465.00
2023-05-27T01:09:58.101Z,2467.00
2023-05-27T01:10:58.190Z,2474.00
2023-05-27T01:11:58.260Z,2469.00
2023-05-27T01:12:58.282Z,2447.00
2023-05-27T01:13:58.307Z,2455.00
2023-05-27T01:14:58.384Z,2475.00
2023-05-27T01:15:58.429Z,2480.00
2023-05-27T01:16:58.542Z,2469.00
2023-05-27T01:17:58.540Z,2481.00
2023-05-27T01:18:58.601Z,2481.00
2023-05-27T01:19:58.665Z,2485.00
2023-05-27T01:20:58.741Z,2477.00
2023-05-27T01:21:58.749Z,2473.00
2023-05-27T01:22:58.800Z,2483.00
2023-05-27T01:23:58.853Z,2470.00
2023-05-27T01:24:58.954Z,2459.00
2023-05-27T01:25:58.956Z,2467.00
2023-05-27T01:26:59.027Z,2482.00
2023-05-27T01:27:59.063Z,2476.00
2023-05-27T01:28:59.126Z,2466.00
2023-05-27T01:29:59.179Z,2443.00
2023-05-27T01:30:59.251Z,2465.00
2023-05-27T01:31:59.370Z,2461.00
2023-05-27T01:32:59.380Z,2463.00
2023-05-27T01:33:59.416Z,2470.00
2023-05-27T01:34:59.460Z,2470.00
2023-05-27T01:35:59.534Z,2451.00
2023-05-27T01:36:59.567Z,2472.00
2023-05-27T01:37:59.623Z,2477.00
2023-05-27T01:38:59.695Z,2481.00
2023-05-27T01:39:59.741Z,2466.00
2023-05-27T01:40:59.800Z,2488.00
2023-05-27T01:41:59.866Z,2493.00
2023-05-27T01:42:59.922Z,2492.00
2023-05-27T01:43:59.983Z,2493.00
2023-05-27T01:45:00.037Z,2499.00
2023-05-27T01:46:00.086Z,2493.00
2023-05-27T01:47:00.232Z,2483.00
2023-05-27T01:48:00.379Z,2484.00
2023-05-27T01:49:00.745Z,2455.00
2023-05-27T01:50:00.316Z,2465.00
2023-05-27T01:51:00.336Z,2461.00
2023-05-27T01:52:00.400Z,2459.00
2023-05-27T01:53:00.654Z,2463.00
2023-05-27T01:54:00.548Z,2459.00
2023-05-27T01:55:00.618Z,2488.00
2023-05-27T01:56:00.658Z,2477.00
2023-05-27T01:57:00.693Z,2469.00
2023-05-27T01:58:00.771Z,2457.00
2023-05-27T01:59:00.821Z,2464.00
2023-05-27T02:00:00.896Z,2435.00
2023-05-27T02:01:00.978Z,2452.00
2023-05-27T02:02:01.012Z,2456.00
2023-05-27T02:03:01.199Z,2444.00
2023-05-27T02:04:01.181Z,2446.00
2023-05-27T02:05:01.141Z,2440.00
2023-05-27T02:06:01.202Z,2444.00
2023-05-27T02:07:01.237Z,2455.00
2023-05-27T02:08:01.285Z,2449.00
2023-05-27T02:09:01.355Z,2436.00
2023-05-27T02:10:01.386Z,2441.00
2023-05-27T02:11:01.428Z,2434.00
2023-05-27T02:12:01.460Z,2434.00
2023-05-27T02:13:01.531Z,2426.00
2023-05-27T02:14:01.588Z,2421.00
2023-05-27T02:15:01.701Z,2429.00
2023-05-27T02:16:01.706Z,2434.00
2023-05-27T02:17:01.795Z,2427.00
2023-05-27T02:18:01.830Z,2421.00
2023-05-27T02:19:01.868Z,2426.00
2023-05-27T02:20:02.105Z,2408.00
2023-05-27T02:21:01.968Z,2435.00
2023-05-27T02:22:02.034Z,2429.00
2023-05-27T02:23:02.083Z,2437.00
2023-05-27T02:24:02.140Z,2435.00
2023-05-27T02:25:02.197Z,2429.00
2023-05-27T02:26:02.255Z,2446.00
2023-05-27T02:27:02.325Z,2411.00
2023-05-27T02:28:02.609Z,2428.00
2023-05-27T02:29:02.430Z,2442.00
2023-05-27T02:30:02.484Z,2428.00
2023-05-27T02:31:02.634Z,2420.00
2023-05-27T02:32:02.603Z,2429.00
2023-05-27T02:33:02.686Z,2435.00
2023-05-27T02:34:02.711Z,2431.00
2023-05-27T02:35:02.758Z,2420.00
2023-05-27T02:36:02.822Z,2405.00
2023-05-27T02:37:02.883Z,2414.00
2023-05-27T02:38:02.916Z,2423.00
2023-05-27T02:39:02.989Z,2398.00
2023-05-27T02:40:03.059Z,2406.00
2023-05-27T02:41:03.083Z,2417.00
2023-05-27T02:42:03.146Z,2418.00
2023-05-27T02:43:03.211Z,2410.00
2023-05-27T02:44:03.254Z,2416.00
2023-05-27T02:45:03.404Z,2397.00
2023-05-27T02:46:03.430Z,2382.00
2023-05-27T02:47:03.469Z,2377.00
2023-05-27T02:48:03.597Z,2399.00
2023-05-27T02:49:03.527Z,2389.00
2023-05-27T02:50:03.549Z,2365.00
2023-05-27T02:51:03.756Z,2393.00
2023-05-27T02:52:03.733Z,2379.00
2023-05-27T02:53:03.738Z,2391.00
2023-05-27T02:54:03.822Z,2378.00
2023-05-27T02:55:03.814Z,2385.00
2023-05-27T02:56:03.871Z,2363.00
2023-05-27T02:57:03.932Z,2366.00
2023-05-27T02:58:03.989Z,2388.00
2023-05-27T02:59:04.046Z,2379.00
2023-05-27T03:00:04.075Z,2382.00
2023-05-27T03:01:04.141Z,2372.00
2023-05-27T03:02:04.327Z,2389.00
2023-05-27T03:03:04.285Z,2393.00
2023-05-27T03:04:04.362Z,2401.00
2023-05-27T03:05:04.376Z,2391.00
2023-05-27T03:06:04.401Z,2392.00
2023-05-27T03:07:04.455Z,2397.00
2023-05-27T03:08:04.500Z,2395.00
2023-05-27T03:09:04.552Z,2411.00
2023-05-27T03:10:04.611Z,2407.00
2023-05-27T03:11:04.640Z,2392.00
2023-05-27T03:12:04.678Z,2402.00
2023-05-27T03:13:04.713Z,2394.00
2023-05-27T03:14:04.745Z,2395.00
2023-05-27T03:15:04.785Z,2406.00
2023-05-27T03:16:04.824Z,2405.00
2023-05-27T03:17:04.774Z,2399.00
2023-05-27T03:18:04.807Z,2402.00
2023-05-27T03:19:04.762Z,2391.00
2023-05-27T03:20:04.771Z,2392.00
2023-05-27T03:21:04.735Z,2394.00
2023-05-27T03:22:04.718Z,2402.00
2023-05-27T03:23:04.708Z,2394.00
2023-05-27T03:24:04.681Z,2410.00
2023-05-27T03:25:04.706Z,2410.00
2023-05-27T03:26:04.847Z,2416.00
2023-05-27T03:27:04.641Z,2400.00
2023-05-27T03:28:04.620Z,2406.00
2023-05-27T03:29:04.603Z,2402.00
2023-05-27T03:30:04.592Z,2403.00
2023-05-27T03:31:04.575Z,2405.00
2023-05-27T03:32:04.741Z,2392.00
2023-05-27T03:33:04.668Z,2388.00
2023-05-27T03:34:04.731Z,2371.00
2023-05-27T03:35:04.742Z,2360.00
2023-05-27T03:36:04.770Z,2388.00
2023-05-27T03:37:04.790Z,2385.00
2023-05-27T03:38:04.891Z,2371.00
2023-05-27T03:39:04.811Z,2377.00
2023-05-27T03:40:04.851Z,2378.00
2023-05-27T03:41:05.686Z,2369.00
2023-05-27T03:42:04.799Z,2365.00
2023-05-27T03:43:04.830Z,2378.00
2023-05-27T03:44:04.873Z,2391.00
2023-05-27T03:45:04.894Z,2381.00
2023-05-27T03:46:04.871Z,2350.00
2023-05-27T03:47:04.960Z,2348.00
2023-05-27T03:48:04.927Z,2344.00
2023-05-27T03:49:04.894Z,2342.00
2023-05-27T03:50:04.950Z,2332.00
2023-05-27T03:51:04.896Z,2349.00
2023-05-27T03:52:04.922Z,2351.00
2023-05-27T03:53:04.953Z,2352.00
2023-05-27T03:54:04.960Z,2362.00
2023-05-27T03:55:05.060Z,2342.00
2023-05-27T03:56:05.099Z,2336.00
2023-05-27T03:57:05.111Z,2328.00
2023-05-27T03:58:05.081Z,2326.00
2023-05-27T03:59:05.422Z,2340.00
2023-05-27T04:00:05.137Z,2346.00
2023-05-27T04:01:05.799Z,2345.00
2023-05-27T04:02:05.223Z,2349.00
2023-05-27T04:03:05.498Z,2326.00
2023-05-27T04:04:05.485Z,2331.00
2023-05-27T04:05:05.355Z,2329.00
2023-05-27T04:06:05.392Z,2312.00
2023-05-27T04:07:05.456Z,2312.00
2023-05-27T04:08:06.326Z,2313.00
2023-05-27T04:09:05.421Z,2327.00
2023-05-27T04:10:06.297Z,2338.00
2023-05-27T04:11:06.307Z,2317.00
2023-05-27T04:12:06.316Z,2326.00
2023-05-27T04:13:06.303Z,2326.00
2023-05-27T04:14:05.502Z,2334.00
2023-05-27T04:15:05.427Z,2319.00
2023-05-27T04:16:05.564Z,2322.00
2023-05-27T04:17:06.324Z,2323.00
2023-05-27T04:18:05.508Z,2330.00
2023-05-27T04:19:05.513Z,2313.00
2023-05-27T04:20:05.573Z,2323.00
2023-05-27T04:21:05.599Z,2317.00
2023-05-27T04:22:05.588Z,2312.00
2023-05-27T04:23:05.659Z,2294.00
2023-05-27T04:24:05.634Z,2305.00
2023-05-27T04:25:05.649Z,2309.00
2023-05-27T04:26:05.670Z,2308.00
2023-05-27T04:27:05.707Z,2311.00
2023-05-27T04:28:05.694Z,2307.00
2023-05-27T04:29:05.718Z,2293.00
2023-05-27T04:30:06.253Z,2299.00
2023-05-27T04:31:05.717Z,2310.00
2023-05-27T04:32:05.763Z,2300.00
2023-05-27T04:33:05.754Z,2308.00
2023-05-27T04:34:05.783Z,2304.00
2023-05-27T04:35:05.791Z,2290.00
2023-05-27T04:36:05.785Z,2305.00
2023-05-27T04:37:05.828Z,2296.00
2023-05-27T04:38:05.871Z,2294.00
2023-05-27T04:39:05.929Z,2302.00
2023-05-27T04:40:05.956Z,2303.00
2023-05-27T04:41:06.000Z,2292.00
2023-05-27T04:42:06.055Z,2296.00
2023-05-27T04:43:06.107Z,2284.00
2023-05-27T04:44:06.189Z,2295.00
2023-05-27T04:45:06.255Z,2293.00
2023-05-27T04:46:06.353Z,2300.00
2023-05-27T04:47:06.465Z,2297.00
2023-05-27T04:48:06.505Z,2288.00
2023-05-27T04:49:06.525Z,2278.00
2023-05-27T04:50:06.557Z,2275.00
2023-05-27T04:51:06.623Z,2284.00
2023-05-27T04:52:06.776Z,2278.00
2023-05-27T04:53:07.669Z,2284.00
2023-05-27T04:54:06.952Z,2287.00
2023-05-27T04:55:06.914Z,2278.00
2023-05-27T04:56:06.983Z,2269.00
2023-05-27T04:57:07.069Z,2271.00
2023-05-27T04:58:07.122Z,2287.00
2023-05-27T04:59:07.201Z,2284.00
2023-05-27T05:00:07.278Z,2273.00
2023-05-27T05:01:07.352Z,2267.00
2023-05-27T05:02:07.384Z,2265.00
2023-05-27T05:03:07.613Z,2270.00
2023-05-27T05:04:07.561Z,2277.00
2023-05-27T05:05:07.575Z,2276.00
2023-05-27T05:06:07.653Z,2287.00
2023-05-27T05:07:07.710Z,2252.00
2023-05-27T05:08:07.782Z,2269.00
2023-05-27T05:09:07.845Z,2272.00
2023-05-27T05:10:07.911Z,2273.00
2023-05-27T05:11:07.960Z,2271.00
2023-05-27T05:12:08.011Z,2281.00
2023-05-27T05:13:08.083Z,2277.00
2023-05-27T05:14:08.149Z,2274.00
2023-05-27T05:15:08.201Z,2265.00
2023-05-27T05:16:08.292Z,2261.00
2023-05-27T05:17:08.432Z,2268.00
2023-05-27T05:18:08.483Z,2269.00
2023-05-27T05:19:08.448Z,2274.00
2023-05-27T05:20:08.502Z,2264.00
2023-05-27T05:21:08.554Z,2262.00
2023-05-27T05:22:08.649Z,2261.00
2023-05-27T05:23:08.673Z,2258.00
2023-05-27T05:24:08.744Z,2259.00
2023-05-27T05:25:08.788Z,2256.00
2023-05-27T05:26:08.845Z,2262.00
2023-05-27T05:27:08.917Z,2269.00
2023-05-27T05:28:08.928Z,2269.00
2023-05-27T05:29:08.935Z,2272.00
2023-05-27T05:30:08.931Z,2272.00
2023-05-27T05:31:08.925Z,2264.00
2023-05-27T05:32:09.052Z,2281.00
2023-05-27T05:33:08.972Z,2277.00
2023-05-27T05:34:08.913Z,2264.00
2023-05-27T05:35:08.920Z,2251.00
2023-05-27T05:36:08.912Z,2256.00
2023-05-27T05:37:08.882Z,2251.00
2023-05-27T05:38:08.885Z,2246.00
2023-05-27T05:39:08.890Z,2233.00
2023-05-27T05:40:08.852Z,2243.00
2023-05-27T05:41:08.851Z,2232.00
2023-05-27T05:42:08.879Z,2242.00
2023-05-27T05:43:08.845Z,2242.00
2023-05-27T05:44:08.854Z,2243.00
2023-05-27T05:45:08.830Z,2243.00
2023-05-27T05:46:08.865Z,2247.00
2023-05-27T05:47:08.828Z,2248.00
2023-05-27T05:48:08.834Z,2232.00
2023-05-27T05:49:08.803Z,2232.00
2023-05-27T05:50:08.808Z,2223.00
2023-05-27T05:51:08.807Z,2243.00
2023-05-27T05:52:08.799Z,2244.00
2023-05-27T05:53:08.780Z,2252.00
2023-05-27T05:54:08.817Z,2241.00
2023-05-27T05:55:08.816Z,2230.00
2023-05-27T05:56:08.869Z,2239.00
2023-05-27T05:57:08.913Z,2242.00
2023-05-27T05:58:08.938Z,2250.00
2023-05-27T05:59:08.983Z,2235.00
2023-05-27T06:00:09.057Z,2235.00
2023-05-27T06:01:09.118Z,2227.00
2023-05-27T06:02:09.189Z,2223.00
2023-05-27T06:03:09.350Z,2226.00
2023-05-27T06:04:09.332Z,2237.00
2023-05-27T06:05:09.354Z,2236.00
2023-05-27T06:06:09.385Z,2238.00
2023-05-27T06:07:09.449Z,2230.00
2023-05-27T06:08:09.508Z,2232.00
2023-05-27T06:09:09.565Z,2235.00
2023-05-27T06:10:09.632Z,2229.00
2023-05-27T06:11:09.695Z,2221.00
2023-05-27T06:12:09.748Z,2218.00
2023-05-27T06:13:09.789Z,2203.00
2023-05-27T06:14:09.868Z,2215.00
2023-05-27T06:15:09.918Z,2190.00
2023-05-27T06:16:10.071Z,2212.00
2023-05-27T06:17:10.069Z,2211.00
2023-05-27T06:18:10.135Z,2208.00
2023-05-27T06:19:10.112Z,2208.00
2023-05-27T06:20:10.188Z,2204.00
2023-05-27T06:21:10.205Z,2199.00
2023-05-27T06:22:10.276Z,2202.00
2023-05-27T06:23:10.319Z,2213.00
2023-05-27T06:24:10.343Z,2196.00
2023-05-27T06:25:10.378Z,2200.00
2023-05-27T06:26:10.434Z,2195.00
2023-05-27T06:27:10.498Z,2195.00
2023-05-27T06:28:10.571Z,2201.00
2023-05-27T06:29:10.625Z,2204.00
2023-05-27T06:30:10.680Z,2193.00
2023-05-27T06:31:12.424Z,2205.00
2023-05-27T06:32:10.795Z,2200.00
2023-05-27T06:33:10.884Z,2202.00
2023-05-27T06:34:10.929Z,2207.00
2023-05-27T06:35:10.969Z,2194.00
2023-05-27T06:36:11.044Z,2207.00
2023-05-27T06:37:11.101Z,2196.00
2023-05-27T06:38:11.236Z,2196.00
2023-05-27T06:39:11.336Z,2198.00
2023-05-27T06:40:11.296Z,2193.00
2023-05-27T06:41:11.382Z,2204.00
2023-05-27T06:42:11.443Z,2189.00
2023-05-27T06:43:11.478Z,2209.00
2023-05-27T06:44:11.581Z,2198.00
2023-05-27T06:45:11.602Z,2203.00
2023-05-27T06:46:11.736Z,2187.00
2023-05-27T06:47:11.729Z,2188.00
2023-05-27T06:48:11.843Z,2195.00
2023-05-27T06:49:11.895Z,2196.00
2023-05-27T06:50:11.913Z,2183.00
2023-05-27T06:51:11.976Z,2198.00
2023-05-27T06:52:14.792Z,2173.00
2023-05-27T06:53:12.045Z,2185.00
2023-05-27T06:54:12.054Z,2166.00
2023-05-27T06:55:12.118Z,2175.00
2023-05-27T06:56:12.029Z,2168.00
2023-05-27T06:57:12.017Z,2181.00
2023-05-27T06:58:12.097Z,2180.00
2023-05-27T06:59:11.996Z,2158.00
2023-05-27T07:00:11.996Z,2190.00
2023-05-27T07:01:12.076Z,2165.00
2023-05-27T07:02:11.968Z,2151.00
2023-05-27T07:03:11.959Z,2126.00
2023-05-27T07:04:11.985Z,2073.00
2023-05-27T07:05:11.942Z,2092.00
2023-05-27T07:06:11.930Z,2091.00
2023-05-27T07:07:11.946Z,2081.00
2023-05-27T07:08:11.886Z,2080.00
2023-05-27T07:09:11.873Z,2063.00
2023-05-27T07:10:11.871Z,2061.00
2023-05-27T07:11:11.898Z,2041.00
2023-05-27T07:12:11.961Z,2041.00
2023-05-27T07:13:11.825Z,2034.00
2023-05-27T07:14:11.812Z,2023.00
2023-05-27T07:15:11.783Z,1991.00
2023-05-27T07:16:11.869Z,1990.00
2023-05-27T07:17:11.774Z,1979.00
2023-05-27T07:18:11.810Z,1998.00
2023-05-27T07:19:11.742Z,1990.00
2023-05-27T07:20:11.802Z,1975.00
2023-05-27T07:21:11.723Z,1968.00
2023-05-27T07:22:11.732Z,1949.00
2023-05-27T07:23:11.702Z,1902.00
2023-05-27T07:24:11.694Z,1903.00
2023-05-27T07:25:11.689Z,1897.00
2023-05-27T07:26:11.662Z,1888.00
2023-05-27T07:27:11.649Z,1900.00
2023-05-27T07:28:11.651Z,1894.00
2023-05-27T07:29:11.705Z,1891.00
2023-05-27T07:30:11.753Z,1882.00
2023-05-27T07:31:11.835Z,1876.00
2023-05-27T07:32:11.870Z,1858.00
2023-05-27T07:33:11.943Z,1858.00
2023-05-27T07:34:12.035Z,1831.00
2023-05-27T07:35:12.046Z,1808.00
2023-05-27T07:36:12.092Z,1804.00
2023-05-27T07:37:12.173Z,1798.00
2023-05-27T07:38:12.196Z,1770.00
2023-05-27T07:39:12.256Z,1761.00
2023-05-27T07:40:12.364Z,1734.00
2023-05-27T07:41:12.292Z,1734.00
2023-05-27T07:42:12.283Z,1722.00
2023-05-27T07:43:12.338Z,1698.00
2023-05-27T07:44:12.271Z,1678.00
2023-05-27T07:45:12.268Z,1656.00
2023-05-27T07:46:12.287Z,1644.00
2023-05-27T07:47:12.255Z,1634.00
2023-05-27T07:48:12.336Z,1618.00
2023-05-27T07:49:12.221Z,1606.00
2023-05-27T07:50:12.261Z,1601.00
2023-05-27T07:51:12.315Z,1590.00
2023-05-27T07:52:12.372Z,1585.00
2023-05-27T07:53:12.470Z,1557.00
2023-05-27T07:54:12.484Z,1557.00
2023-05-27T07:55:12.606Z,1542.00
2023-05-27T07:56:12.577Z,1522.00
2023-05-27T07:57:12.667Z,1514.00
2023-05-27T07:58:12.687Z,1508.00
2023-05-27T07:59:12.707Z,1508.00
2023-05-27T08:00:12.658Z,1488.00
2023-05-27T08:01:12.737Z,1485.00
2023-05-27T08:02:12.680Z,1475.00
2023-05-27T08:03:12.712Z,1458.00
2023-05-27T08:04:24.366Z,1445.00
2023-05-27T08:05:13.579Z,1445.00
2023-05-27T08:06:14.177Z,1433.00
2023-05-27T08:07:12.602Z,1424.00
2023-05-27T08:08:12.555Z,1431.00
2023-05-27T08:09:12.562Z,1402.00
2023-05-27T08:10:12.568Z,1398.00
2023-05-27T08:11:12.510Z,1382.00
2023-05-27T08:12:12.534Z,1374.00
2023-05-27T08:13:12.500Z,1355.00
2023-05-27T08:14:12.525Z,1331.00
2023-05-27T08:15:12.562Z,1312.00
2023-05-27T08:16:12.619Z,1320.00
2023-05-27T08:17:12.682Z,1298.00
2023-05-27T08:18:12.806Z,1283.00
2023-05-27T08:19:12.759Z,1268.00
2023-05-27T08:20:12.838Z,1259.00
2023-05-27T08:21:12.823Z,1244.00
2023-05-27T08:22:12.908Z,1233.00
2023-05-27T08:23:12.930Z,1211.00
2023-05-27T08:24:12.991Z,1196.00
2023-05-27T08:25:13.012Z,1193.00
2023-05-27T08:26:13.057Z,1172.00
2023-05-27T08:27:13.135Z,1177.00
2023-05-27T08:28:13.137Z,1154.00
2023-05-27T08:29:13.204Z,1159.00
2023-05-27T08:30:13.239Z,1148.00
2023-05-27T08:31:13.294Z,1133.00
2023-05-27T08:32:13.405Z,1115.00
2023-05-27T08:33:13.435Z,1110.00
2023-05-27T08:34:13.425Z,1107.00
2023-05-27T08:35:13.450Z,1107.00
2023-05-27T08:36:13.492Z,1093.00
2023-05-27T08:37:13.577Z,1100.00
2023-05-27T08:38:13.595Z,1070.00
2023-05-27T08:39:13.636Z,1054.00
2023-05-27T08:40:13.679Z,1052.00
2023-05-27T08:41:13.738Z,1042.00
2023-05-27T08:42:13.752Z,1037.00
2023-05-27T08:43:13.804Z,1008.00
2023-05-27T08:44:21.318Z,1004.00
2023-05-27T08:45:14.837Z,999.00
2023-05-27T08:46:13.838Z,980.00
2023-05-27T08:47:13.807Z,967.00
2023-05-27T08:48:13.812Z,962.00
2023-05-27T08:49:13.786Z,950.00
2023-05-27T08:50:13.759Z,930.00
2023-05-27T08:51:13.757Z,910.00
2023-05-27T08:52:13.736Z,909.00
2023-05-27T08:53:13.730Z,909.00
2023-05-27T08:54:13.721Z,895.00
2023-05-27T08:55:13.702Z,889.00
2023-05-27T08:56:13.715Z,877.00
2023-05-27T08:57:13.752Z,855.00
2023-05-27T08:58:13.809Z,864.00
2023-05-27T08:59:13.844Z,847.00
2023-05-27T09:00:13.879Z,832.00
2023-05-27T09:01:13.929Z,831.00
2023-05-27T09:02:13.982Z,832.00
2023-05-27T09:03:14.006Z,823.00
2023-05-27T09:05:33.120Z,500.00
2023-05-27T09:06:33.051Z,500.00
2023-05-27T09:07:33.044Z,500.00
2023-05-27T09:08:49.591Z,500.00
2023-05-27T09:09:34.014Z,500.00
2023-05-27T09:10:33.003Z,500.00
2023-05-27T09:11:33.015Z,500.00
2023-05-27T09:12:32.946Z,500.00
2023-05-27T09:13:32.926Z,500.00
2023-05-27T09:14:32.907Z,501.00
2023-05-27T09:15:32.887Z,501.00
2023-05-27T09:16:32.963Z,500.00
2023-05-27T09:17:33.011Z,500.00
2023-05-27T09:18:32.841Z,504.00
2023-05-27T09:19:32.809Z,500.00
2023-05-27T09:20:32.813Z,500.00
2023-05-27T09:21:32.795Z,503.00
2023-05-27T09:22:32.826Z,505.00
2023-05-27T09:23:32.849Z,508.00
2023-05-27T09:24:32.843Z,500.00
2023-05-27T09:25:32.877Z,501.00
2023-05-27T09:26:32.881Z,500.00
2023-05-27T09:27:32.912Z,500.00
2023-05-27T09:28:32.932Z,500.00
2023-05-27T09:29:32.955Z,500.00
2023-05-27T09:30:32.948Z,500.00
2023-05-27T09:31:33.004Z,504.00
2023-05-27T09:32:32.929Z,503.00
2023-05-27T09:33:32.897Z,504.00
2023-05-27T09:34:32.877Z,506.00
2023-05-27T09:35:32.845Z,509.00
2023-05-27T09:36:32.812Z,513.00
2023-05-27T09:37:32.862Z,503.00
2023-05-27T09:38:32.800Z,505.00
2023-05-27T09:39:32.734Z,511.00
2023-05-27T09:40:32.719Z,510.00
2023-05-27T09:41:32.723Z,516.00
2023-05-27T09:42:32.655Z,504.00
2023-05-27T09:43:32.661Z,500.00
2023-05-27T09:44:32.616Z,500.00
2023-05-27T09:45:32.635Z,500.00
2023-05-27T09:46:32.614Z,502.00
2023-05-27T09:47:32.649Z,502.00
2023-05-27T09:48:32.733Z,502.00
2023-05-27T09:49:32.680Z,502.00
2023-05-27T09:50:32.693Z,503.00
2023-05-27T09:51:32.702Z,502.00
2023-05-27T09:52:34.511Z,507.00
2023-05-27T09:53:32.704Z,508.00
2023-05-27T09:54:32.660Z,508.00
2023-05-27T09:55:32.670Z,506.00
2023-05-27T09:56:32.611Z,507.00
2023-05-27T09:57:32.576Z,509.00
2023-05-27T09:58:32.571Z,507.00
2023-05-27T09:59:32.549Z,501.00
2023-05-27T10:00:32.496Z,505.00
2023-05-27T10:01:32.494Z,505.00
2023-05-27T10:02:32.442Z,511.00
2023-05-27T10:03:32.401Z,510.00
2023-05-27T10:04:32.418Z,513.00
2023-05-27T10:05:32.361Z,505.00
2023-05-27T10:06:32.300Z,512.00
2023-05-27T10:07:36.591Z,507.00
2023-05-27T10:08:32.235Z,508.00
2023-05-27T10:09:32.204Z,507.00
2023-05-27T10:10:32.176Z,496.00
2023-05-27T10:11:32.181Z,488.00
2023-05-27T10:12:32.118Z,487.00
2023-05-27T10:13:32.088Z,500.00
2023-05-27T10:14:32.080Z,507.00
2023-05-27T10:15:32.026Z,512.00
2023-05-27T10:16:32.062Z,533.00
2023-05-27T10:17:31.978Z,534.00
2023-05-27T10:18:31.981Z,525.00
2023-05-27T10:19:31.941Z,513.00
2023-05-27T10:20:31.931Z,511.00
2023-05-27T10:21:32.031Z,508.00
2023-05-27T10:22:31.825Z,511.00
2023-05-27T10:23:31.790Z,501.00
2023-05-27T10:24:31.784Z,500.00
2023-05-27T10:25:31.792Z,500.00
2023-05-27T10:26:31.678Z,501.00
2023-05-27T10:27:31.671Z,500.00
2023-05-27T10:28:31.610Z,509.00
2023-05-27T10:29:31.599Z,510.00
2023-05-27T10:30:31.550Z,506.00
2023-05-27T10:31:31.568Z,503.00
2023-05-27T10:32:31.607Z,501.00
2023-05-27T10:33:31.563Z,502.00
2023-05-27T10:34:31.560Z,501.00
2023-05-27T10:35:32.006Z,500.00
2023-05-27T10:36:31.554Z,500.00
2023-05-27T10:37:31.580Z,500.00
2023-05-27T10:38:31.549Z,503.00
2023-05-27T10:39:31.561Z,503.00
2023-05-27T10:40:31.574Z,500.00
2023-05-27T10:41:31.563Z,501.00
2023-05-27T10:42:31.544Z,499.00
2023-05-27T10:43:31.608Z,502.00
2023-05-27T10:44:31.539Z,505.00
2023-05-27T10:45:31.574Z,518.00
2023-05-27T10:46:31.606Z,516.00
2023-05-27T10:47:31.649Z,507.00
2023-05-27T10:48:31.541Z,508.00
2023-05-27T10:49:31.522Z,505.00
2023-05-27T10:50:31.523Z,502.00
2023-05-27T10:51:31.531Z,501.00
2023-05-27T10:52:31.506Z,503.00
2023-05-27T10:53:31.507Z,509.00
2023-05-27T10:54:31.629Z,512.00
2023-05-27T10:55:31.524Z,515.00
2023-05-27T10:56:31.506Z,510.00
2023-05-27T10:57:31.495Z,510.00
2023-05-27T10:58:31.480Z,516.00
2023-05-27T10:59:31.483Z,521.00
2023-05-27T11:00:31.480Z,522.00
2023-05-27T11:01:31.555Z,537.00
2023-05-27T11:02:31.500Z,548.00
2023-05-27T11:03:31.531Z,546.00
2023-05-27T11:04:31.460Z,544.00
2023-05-27T11:05:31.457Z,536.00
2023-05-27T11:06:31.440Z,525.00
2023-05-27T11:07:31.473Z,535.00
2023-05-27T11:08:31.415Z,529.00
2023-05-27T11:09:31.432Z,534.00
2023-05-27T11:10:31.414Z,549.00
2023-05-27T11:11:31.400Z,541.00
2023-05-27T11:12:31.393Z,538.00
2023-05-27T11:13:31.371Z,528.00
2023-05-27T11:14:31.360Z,540.00
2023-05-27T11:15:31.358Z,535.00
2023-05-27T11:16:31.412Z,522.00
2023-05-27T11:17:31.379Z,527.00
2023-05-27T11:18:31.334Z,531.00
2023-05-27T11:19:31.319Z,536.00
2023-05-27T11:20:31.347Z,537.00
2023-05-27T11:21:31.299Z,515.00
2023-05-27T11:22:31.284Z,516.00
2023-05-27T11:23:31.270Z,516.00
2023-05-27T11:24:31.252Z,534.00
2023-05-27T11:25:31.252Z,527.00
2023-05-27T11:26:31.292Z,523.00
2023-05-27T11:27:31.209Z,520.00
2023-05-27T11:28:31.191Z,515.00
2023-05-27T11:29:31.158Z,522.00
2023-05-27T11:30:31.157Z,516.00
2023-05-27T11:31:31.175Z,517.00
2023-05-27T11:32:31.103Z,517.00
2023-05-27T11:33:37.120Z,513.00
2023-05-27T11:34:32.052Z,513.00
2023-05-27T11:35:31.021Z,509.00
2023-05-27T11:36:30.988Z,513.00
2023-05-27T11:37:30.964Z,515.00
2023-05-27T11:38:30.931Z,522.00
2023-05-27T11:39:30.897Z,519.00
2023-05-27T11:40:30.875Z,528.00
2023-05-27T11:41:30.850Z,522.00
2023-05-27T11:42:30.816Z,512.00
2023-05-27T11:43:30.817Z,513.00
2023-05-27T11:44:30.739Z,511.00
2023-05-27T11:45:30.819Z,509.00
2023-05-27T11:46:30.707Z,511.00
2023-05-27T11:47:30.685Z,500.00
2023-05-27T11:48:30.655Z,507.00
2023-05-27T11:49:30.603Z,506.00
2023-05-27T11:50:30.575Z,501.00
2023-05-27T11:51:30.544Z,506.00
2023-05-27T11:52:30.508Z,512.00
2023-05-27T11:53:30.509Z,514.00
2023-05-27T11:54:30.450Z,516.00
2023-05-27T11:55:30.472Z,516.00
2023-05-27T11:56:30.421Z,517.00
2023-05-27T11:57:30.366Z,520.00
2023-05-27T11:58:30.349Z,519.00
2023-05-27T11:59:30.284Z,524.00
2023-05-27T12:00:30.273Z,513.00
2023-05-27T12:01:30.223Z,509.00
2023-05-27T12:02:30.219Z,514.00
2023-05-27T12:03:30.348Z,510.00
2023-05-27T12:04:30.121Z,512.00
2023-05-27T12:05:34.648Z,519.00
2023-05-27T12:06:31.070Z,519.00
2023-05-27T12:07:30.014Z,520.00
2023-05-27T12:08:29.978Z,521.00
2023-05-27T12:09:29.965Z,527.00
2023-05-27T12:10:29.895Z,529.00
2023-05-27T12:11:29.867Z,528.00
2023-05-27T12:12:29.828Z,519.00
2023-05-27T12:13:29.789Z,524.00
2023-05-27T12:14:29.757Z,525.00